Wisconsin Rapids, Wisconsin
Current Conditions -  °F | °C
As of 9:54 AM on Thursday 27 Nov 2014 (Local Time) from KISW Reporting Station
Clear Clear  
Wind Chill: -4°   Ceiling: Unl
Heat Index: 11°   Visibility: NA
Dew Point:   Wind: 13mph
Humidity: 67%   Direction: 320°NW
Pressure: 30.4"   Gusts: NA
Location:  44.39°N, 89.82°W
Report Text: KISW 271554Z AUTO 32011KT CLR M12/M17 A3040 RMK AO2 UPB10E19 SLP315 P0000 T11171167 $
Loading
Personal Weather Stations






























Interactive Weather Map New forecast layout! Learn more

10-Day Weather Forecast

Advertisements
Track Severe Weather on mobile